createdAt,value
2023-04-01T00:04:51.971Z,41.60
2023-04-01T00:07:55.883Z,36.10
2023-04-01T00:10:59.275Z,37.60
2023-04-01T00:14:03.656Z,36.40
2023-04-01T00:17:07.316Z,39.90
2023-04-01T00:20:12.529Z,36.50
2023-04-01T00:23:17.003Z,36.70
2023-04-01T00:26:22.653Z,36.20
2023-04-01T00:29:30.328Z,41.10
2023-04-01T00:35:37.030Z,36.40
2023-04-01T00:38:40.850Z,40.60
2023-04-01T00:41:44.464Z,37.50
2023-04-01T00:44:56.150Z,39.20
2023-04-01T00:48:07.535Z,42.40
2023-04-01T00:51:17.177Z,39.70
2023-04-01T00:54:22.930Z,38.90
2023-04-01T00:57:33.287Z,41.20
2023-04-01T01:00:38.064Z,40.10
2023-04-01T01:03:42.153Z,43.20
2023-04-01T01:06:56.505Z,43.50
2023-04-01T01:10:20.902Z,43.70
2023-04-01T01:13:36.477Z,43.00
2023-04-01T01:16:46.350Z,45.60
2023-04-01T01:20:26.971Z,38.80
2023-04-01T01:24:06.760Z,43.80
2023-04-01T01:27:14.920Z,38.20
2023-04-01T01:30:37.627Z,45.90
2023-04-01T01:34:04.056Z,46.90
2023-04-01T01:37:14.614Z,42.90
2023-04-01T01:40:19.096Z,45.10
2023-04-01T01:43:26.913Z,43.90
2023-04-01T01:46:32.281Z,44.70
2023-04-01T01:49:38.140Z,43.80
2023-04-01T01:52:41.449Z,36.90
2023-04-01T01:55:47.895Z,44.30
2023-04-01T01:58:56.028Z,45.40
2023-04-01T02:04:54.224Z,40.70
2023-04-01T02:08:13.658Z,44.00
2023-04-01T02:11:22.733Z,42.70
2023-04-01T02:14:44.862Z,40.30
2023-04-01T02:17:49.854Z,41.90
2023-04-01T02:20:54.833Z,42.10
2023-04-01T02:24:02.228Z,36.60
2023-04-01T02:27:11.564Z,39.40
2023-04-01T02:30:18.552Z,42.30
2023-04-01T02:33:22.151Z,42.10
2023-04-01T02:36:27.436Z,38.80
2023-04-01T02:39:32.124Z,42.10
2023-04-01T02:42:35.828Z,38.20
2023-04-01T02:45:39.333Z,37.30
2023-04-01T02:48:43.712Z,37.30
2023-04-01T02:51:46.908Z,40.00
2023-04-01T02:54:50.289Z,39.00
2023-04-01T02:57:56.112Z,38.80
2023-04-01T03:00:59.634Z,38.40
2023-04-01T03:04:04.038Z,41.90
2023-04-01T03:07:08.153Z,40.50
2023-04-01T03:10:11.961Z,40.70
2023-04-01T03:13:16.023Z,36.30
2023-04-01T03:16:20.563Z,37.90
2023-04-01T03:19:24.127Z,38.60
2023-04-01T03:22:27.393Z,41.50
2023-04-01T03:25:32.239Z,35.70
2023-04-01T03:28:36.653Z,36.20
2023-04-01T03:31:39.961Z,35.00
2023-04-01T03:34:43.352Z,33.40
2023-04-01T03:37:46.752Z,39.30
2023-04-01T03:40:51.581Z,36.70
2023-04-01T03:43:55.290Z,42.20
2023-04-01T03:46:58.481Z,37.90
2023-04-01T03:50:02.903Z,39.20
2023-04-01T03:53:07.224Z,40.80
2023-04-01T03:56:11.777Z,40.10
2023-04-01T03:59:16.395Z,35.50
2023-04-01T04:04:53.278Z,32.90
2023-04-01T04:07:56.983Z,41.10
2023-04-01T04:11:00.998Z,40.80
2023-04-01T04:14:04.417Z,44.60
2023-04-01T04:17:09.438Z,32.50
2023-04-01T04:20:13.245Z,36.70
2023-04-01T04:23:17.369Z,37.60
2023-04-01T04:26:20.982Z,40.10
2023-04-01T04:29:31.234Z,36.80
2023-04-01T04:32:35.255Z,33.70
2023-04-01T04:35:39.361Z,32.50
2023-04-01T04:38:47.774Z,31.40
2023-04-01T04:41:51.786Z,32.20
2023-04-01T04:44:56.132Z,33.20
2023-04-01T04:48:00.079Z,34.10
2023-04-01T04:51:04.582Z,28.40
2023-04-01T04:54:08.968Z,29.10
2023-04-01T04:57:33.291Z,30.80
2023-04-01T05:00:37.270Z,28.30
2023-04-01T05:03:49.285Z,25.60
2023-04-01T05:06:53.088Z,26.80
2023-04-01T05:09:56.684Z,27.90
2023-04-01T05:13:01.130Z,25.50
2023-04-01T05:16:10.436Z,28.60
2023-04-01T05:19:17.543Z,28.60
2023-04-01T05:22:21.226Z,29.90
2023-04-01T05:25:27.241Z,25.30
2023-04-01T05:28:31.312Z,22.30
2023-04-01T05:31:34.531Z,23.80
2023-04-01T05:34:38.573Z,20.80
2023-04-01T05:37:41.732Z,22.30
2023-04-01T05:40:45.035Z,25.10
2023-04-01T05:43:48.265Z,24.90
2023-04-01T05:47:14.882Z,24.80
2023-04-01T05:50:18.719Z,24.40
2023-04-01T05:53:23.396Z,24.80
2023-04-01T05:56:26.707Z,26.00
2023-04-01T05:59:32.386Z,26.00
2023-04-01T06:05:19.143Z,27.10
2023-04-01T06:08:21.368Z,22.60
2023-04-01T06:12:01.314Z,25.90
2023-04-01T06:15:25.070Z,22.90
2023-04-01T06:18:30.827Z,25.40
2023-04-01T06:21:42.339Z,25.20
2023-04-01T06:25:26.434Z,24.70
2023-04-01T06:28:47.219Z,24.80
2023-04-01T06:32:06.394Z,26.90
2023-04-01T06:35:11.499Z,25.50
2023-04-01T06:38:38.781Z,26.20
2023-04-01T06:42:19.220Z,22.70
2023-04-01T06:45:49.343Z,22.50
2023-04-01T06:49:45.044Z,23.60
2023-04-01T06:53:30.065Z,22.10
2023-04-01T06:57:01.172Z,21.70
2023-04-01T07:00:15.182Z,21.10
2023-04-01T07:04:10.567Z,18.40
2023-04-01T07:07:25.434Z,18.50
2023-04-01T07:10:54.283Z,19.70
2023-04-01T07:14:37.988Z,18.70
2023-04-01T07:17:44.403Z,16.50
2023-04-01T07:20:47.739Z,15.10
2023-04-01T07:23:55.333Z,15.70
2023-04-01T07:27:10.820Z,19.60
2023-04-01T07:30:24.247Z,17.30
2023-04-01T07:33:51.246Z,15.00
2023-04-01T07:37:11.691Z,18.50
2023-04-01T07:40:25.562Z,18.60
2023-04-01T07:44:03.163Z,14.90
2023-04-01T07:47:24.369Z,17.00
2023-04-01T07:50:53.066Z,15.20
2023-04-01T07:54:26.976Z,15.10
2023-04-01T07:58:11.749Z,15.90
2023-04-01T08:01:21.388Z,16.40
2023-04-01T08:04:52.995Z,16.50
2023-04-01T08:08:10.593Z,16.00
2023-04-01T08:11:37.219Z,17.60
2023-04-01T08:15:16.566Z,18.90
2023-04-01T08:18:57.776Z,18.50
2023-04-01T08:22:10.480Z,20.50
2023-04-01T08:25:25.641Z,22.90
2023-04-01T08:28:55.964Z,23.30
2023-04-01T08:32:17.175Z,27.30
2023-04-01T08:35:46.242Z,31.50
2023-04-01T08:39:11.288Z,29.80
2023-04-01T08:42:44.595Z,33.10
2023-04-01T08:46:08.655Z,33.50
2023-04-01T08:49:33.990Z,37.20
2023-04-01T08:52:58.178Z,33.80
2023-04-01T08:56:25.497Z,36.30
2023-04-01T08:59:58.834Z,36.70
2023-04-01T09:03:25.558Z,33.70
2023-04-01T09:06:32.587Z,39.20
2023-04-01T09:13:09.792Z,27.60
2023-04-01T09:17:01.024Z,29.80
2023-04-01T09:20:28.205Z,31.40
2023-04-01T09:23:38.420Z,28.20
2023-04-01T09:26:52.880Z,27.70
2023-04-01T09:30:35.419Z,29.10
2023-04-01T09:34:24.371Z,28.60
2023-04-01T09:38:01.087Z,31.50
2023-04-01T09:41:28.404Z,28.90
2023-04-01T09:44:57.812Z,28.20
2023-04-01T09:48:13.364Z,25.60
2023-04-01T09:51:25.145Z,20.10
2023-04-01T09:54:55.760Z,20.20
2023-04-01T09:58:27.070Z,23.70
2023-04-01T10:05:40.084Z,25.20
2023-04-01T10:08:52.356Z,19.40
2023-04-01T10:12:36.938Z,17.60
2023-04-01T10:16:11.501Z,14.50
2023-04-01T10:19:55.718Z,12.40
2023-04-01T10:23:09.332Z,10.50
2023-04-01T10:26:27.680Z,12.90
2023-04-01T10:30:13.678Z,10.50
2023-04-01T10:33:35.715Z,10.30
2023-04-01T10:36:54.413Z,11.90
2023-04-01T10:40:04.534Z,8.40
2023-04-01T10:44:19.414Z,7.90
2023-04-01T10:47:46.192Z,10.70
2023-04-01T10:54:32.982Z,10.70
2023-04-01T10:58:32.314Z,8.50
2023-04-01T11:02:57.758Z,9.20
2023-04-01T11:06:36.650Z,10.60
2023-04-01T11:10:12.320Z,8.50
2023-04-01T11:14:10.199Z,11.50
2023-04-01T11:17:35.903Z,11.90
2023-04-01T11:21:08.588Z,9.70
2023-04-01T11:24:32.587Z,11.20
2023-04-01T11:28:06.692Z,10.00
2023-04-01T11:31:48.592Z,10.40
2023-04-01T11:35:18.720Z,8.00
2023-04-01T11:38:41.889Z,7.90
2023-04-01T11:42:18.457Z,8.50
2023-04-01T11:46:05.315Z,7.70
2023-04-01T11:49:45.640Z,7.80
2023-04-01T11:53:24.065Z,7.60
2023-04-01T11:56:41.830Z,10.10
2023-04-01T11:59:56.054Z,9.70
2023-04-01T12:03:29.598Z,7.60
2023-04-01T12:06:53.240Z,7.00
2023-04-01T12:10:04.310Z,8.70
2023-04-01T12:13:32.085Z,7.90
2023-04-01T12:17:20.435Z,5.80
2023-04-01T12:21:10.237Z,6.00
2023-04-01T12:24:37.075Z,8.50
2023-04-01T12:27:46.307Z,6.20
2023-04-01T12:30:54.541Z,8.80
2023-04-01T12:34:15.870Z,7.70
2023-04-01T12:37:45.148Z,5.90
2023-04-01T12:41:22.131Z,5.20
2023-04-01T12:44:52.256Z,7.30
2023-04-01T12:48:03.476Z,7.30
2023-04-01T12:51:38.791Z,9.50
2023-04-01T12:54:43.824Z,7.10
2023-04-01T12:58:11.297Z,12.80
2023-04-01T13:01:29.065Z,12.10
2023-04-01T13:04:47.247Z,8.80
2023-04-01T13:08:01.121Z,7.80
2023-04-01T13:11:21.312Z,5.70
2023-04-01T13:14:49.490Z,5.40
2023-04-01T13:18:27.282Z,8.20
2023-04-01T13:21:54.047Z,6.70
2023-04-01T13:25:02.768Z,10.90
2023-04-01T13:28:30.126Z,5.20
2023-04-01T13:31:34.976Z,4.60
2023-04-01T13:34:48.617Z,6.00
2023-04-01T13:38:23.814Z,6.70
2023-04-01T13:41:40.988Z,7.20
2023-04-01T13:44:55.747Z,5.80
2023-04-01T13:48:23.402Z,8.20
2023-04-01T13:51:44.112Z,5.60
2023-04-01T13:55:20.107Z,5.90
2023-04-01T13:58:40.257Z,4.90
2023-04-01T14:05:41.902Z,4.90
2023-04-01T14:09:22.899Z,6.00
2023-04-01T14:12:47.433Z,6.60
2023-04-01T14:16:48.406Z,4.40
2023-04-01T14:20:13.938Z,7.40
2023-04-01T14:23:32.182Z,4.80
2023-04-01T14:26:46.282Z,5.60
2023-04-01T14:30:36.176Z,5.60
2023-04-01T14:33:56.980Z,6.00
2023-04-01T14:37:20.259Z,6.10
2023-04-01T14:40:39.208Z,5.70
2023-04-01T14:43:53.085Z,6.90
2023-04-01T14:47:05.132Z,7.50
2023-04-01T14:50:14.410Z,6.10
2023-04-01T14:53:39.414Z,7.90
2023-04-01T14:56:49.627Z,7.00
2023-04-01T15:00:04.975Z,7.70
2023-04-01T15:03:31.391Z,6.80
2023-04-01T15:06:36.731Z,7.40
2023-04-01T15:09:44.762Z,7.60
2023-04-01T15:13:15.780Z,7.50
2023-04-01T15:16:42.734Z,8.60
2023-04-01T15:20:02.816Z,7.10
2023-04-01T15:23:40.428Z,8.90
2023-04-01T15:26:45.690Z,9.10
2023-04-01T15:30:13.756Z,7.20
2023-04-01T15:33:32.530Z,6.30
2023-04-01T15:36:54.150Z,9.20
2023-04-01T15:40:12.281Z,9.70
2023-04-01T15:43:43.324Z,10.70
2023-04-01T15:46:48.236Z,8.50
2023-04-01T15:50:08.049Z,9.00
2023-04-01T15:53:23.324Z,9.60
2023-04-01T15:56:48.643Z,10.30
2023-04-01T16:00:28.197Z,8.20
2023-04-01T16:04:16.527Z,7.20
2023-04-01T16:07:41.166Z,11.30
2023-04-01T16:10:52.191Z,8.50
2023-04-01T16:14:07.175Z,7.70
2023-04-01T16:17:50.774Z,11.20
2023-04-01T16:21:00.977Z,7.80
2023-04-01T16:24:30.893Z,9.00
2023-04-01T16:27:46.790Z,8.80
2023-04-01T16:31:15.176Z,10.10
2023-04-01T16:34:36.596Z,8.80
2023-04-01T16:37:48.697Z,7.80
2023-04-01T16:40:58.800Z,9.00
2023-04-01T16:44:30.852Z,11.30
2023-04-01T16:47:47.436Z,9.80
2023-04-01T16:50:55.343Z,10.50
2023-04-01T16:54:13.279Z,11.20
2023-04-01T16:57:32.079Z,25.70
2023-04-01T17:00:40.060Z,13.10
2023-04-01T17:03:50.015Z,13.20
2023-04-01T17:07:23.325Z,13.90
2023-04-01T17:10:53.617Z,15.60
2023-04-01T17:14:05.270Z,17.10
2023-04-01T17:17:32.202Z,13.30
2023-04-01T17:20:50.716Z,15.20
2023-04-01T17:27:15.041Z,11.30
2023-04-01T17:31:05.166Z,13.80
2023-04-01T17:34:30.058Z,11.50
2023-04-01T17:37:44.301Z,11.60
2023-04-01T17:41:28.653Z,10.60
2023-04-01T17:44:33.289Z,11.60
2023-04-01T17:47:48.574Z,10.80
2023-04-01T17:51:16.632Z,11.30
2023-04-01T17:54:46.865Z,11.00
2023-04-01T17:58:09.317Z,11.10
2023-04-01T18:05:02.289Z,10.80
2023-04-01T18:08:18.910Z,10.60
2023-04-01T18:11:34.487Z,10.00
2023-04-01T18:15:06.566Z,9.40
2023-04-01T18:18:44.977Z,11.60
2023-04-01T18:21:54.526Z,11.40
2023-04-01T18:25:07.057Z,13.80
2023-04-01T18:28:36.516Z,11.50
2023-04-01T18:31:45.731Z,13.30
2023-04-01T18:35:01.790Z,14.60
2023-04-01T18:38:30.924Z,19.20
2023-04-01T18:45:18.944Z,16.00
2023-04-01T18:48:43.082Z,15.20
2023-04-01T18:52:01.534Z,15.20
2023-04-01T18:55:15.664Z,14.20
2023-04-01T18:58:28.347Z,15.30
2023-04-01T19:01:41.046Z,14.60
2023-04-01T19:05:03.620Z,17.70
2023-04-01T19:08:31.883Z,13.90
2023-04-01T19:11:52.002Z,13.30
2023-04-01T19:15:07.338Z,14.90
2023-04-01T19:18:25.928Z,14.30
2023-04-01T19:21:48.064Z,14.70
2023-04-01T19:25:23.750Z,13.80
2023-04-01T19:28:40.447Z,14.70
2023-04-01T19:32:19.363Z,13.80
2023-04-01T19:35:52.121Z,14.40
2023-04-01T19:39:02.620Z,16.00
2023-04-01T19:42:24.252Z,16.20
2023-04-01T19:45:32.810Z,15.30
2023-04-01T19:49:05.776Z,15.00
2023-04-01T19:52:20.826Z,15.30
2023-04-01T19:55:30.378Z,15.80
2023-04-01T19:58:57.014Z,16.30
2023-04-01T20:02:09.234Z,15.40
2023-04-01T20:05:42.516Z,14.50
2023-04-01T20:08:53.908Z,15.00
2023-04-01T20:12:06.826Z,15.00
2023-04-01T20:15:34.537Z,25.60
2023-04-01T20:19:04.212Z,14.10
2023-04-01T20:22:47.249Z,14.20
2023-04-01T20:25:58.626Z,15.20
2023-04-01T20:29:39.810Z,15.80
2023-04-01T20:33:01.812Z,15.80
2023-04-01T20:36:11.625Z,16.80
2023-04-01T20:39:41.826Z,15.40
2023-04-01T20:43:10.196Z,15.40
2023-04-01T20:46:35.836Z,15.10
2023-04-01T20:50:09.135Z,14.90
2023-04-01T20:53:29.644Z,16.40
2023-04-01T20:56:57.461Z,14.20
2023-04-01T21:00:24.062Z,16.10
2023-04-01T21:03:36.035Z,17.20
2023-04-01T21:07:02.402Z,19.50
2023-04-01T21:10:25.753Z,16.60
2023-04-01T21:13:48.713Z,19.20
2023-04-01T21:17:23.644Z,14.50
2023-04-01T21:20:48.663Z,16.60
2023-04-01T21:24:14.620Z,20.70
2023-04-01T21:27:40.406Z,16.30
2023-04-01T21:31:05.250Z,17.70
2023-04-01T21:34:31.249Z,16.20
2023-04-01T21:37:54.508Z,17.50
2023-04-01T21:41:19.061Z,17.60
2023-04-01T21:44:28.197Z,15.30
2023-04-01T21:48:08.376Z,15.70
2023-04-01T21:51:42.897Z,16.70
2023-04-01T21:54:51.996Z,16.30
2023-04-01T21:58:23.479Z,17.80
2023-04-01T22:05:11.766Z,17.10
2023-04-01T22:08:36.793Z,16.70
2023-04-01T22:12:05.590Z,16.10
2023-04-01T22:15:42.055Z,16.50
2023-04-01T22:19:00.290Z,20.40
2023-04-01T22:22:25.196Z,16.60
2023-04-01T22:26:03.321Z,16.10
2023-04-01T22:29:27.223Z,16.10
2023-04-01T22:33:07.042Z,17.40
2023-04-01T22:36:45.684Z,18.80
2023-04-01T22:40:22.676Z,19.30
2023-04-01T22:43:41.658Z,17.60
2023-04-01T22:46:47.929Z,17.70
2023-04-01T22:50:12.197Z,16.90
2023-04-01T22:53:45.703Z,17.90
2023-04-01T22:57:01.266Z,17.50
2023-04-01T23:00:27.128Z,16.50
2023-04-01T23:03:37.570Z,19.00
2023-04-01T23:06:47.843Z,18.20
2023-04-01T23:09:52.976Z,17.60
2023-04-01T23:13:01.563Z,19.20
2023-04-01T23:16:07.575Z,16.50
2023-04-01T23:19:33.581Z,17.10
2023-04-01T23:22:45.814Z,19.10
2023-04-01T23:26:15.513Z,15.70
2023-04-01T23:29:21.816Z,17.70
2023-04-01T23:32:27.496Z,17.80
2023-04-01T23:35:31.325Z,17.90
2023-04-01T23:38:43.259Z,18.40
2023-04-01T23:41:47.247Z,19.20
2023-04-01T23:44:57.016Z,15.50
2023-04-01T23:48:02.364Z,17.50
2023-04-01T23:51:30.952Z,19.50
2023-04-01T23:54:43.334Z,15.90
2023-04-01T23:58:28.005Z,17.30
